DLH8JP EDDS-LSZH
Flight info
| Callsign | DLH8JP |
|---|---|
| Flight time | 0h 22m |
| Altitude | 21000 |
| Route | SUL3H SUL T721 RILAX |
| Aircraft | A20N/M-SDE2E3FGHIRWXY/LB1 |
Departure
| Time | 2026-04-26 22:06 |
|---|---|
| Airport | Stuttgart Airport (EDDS) |
Arrival
| Time | 2026-04-26 22:29 |
|---|---|
| Airport | Zürich Airport (LSZH) |
| Time | Latitude | Longitude | Altitude | Speed | Heading |
|---|---|---|---|---|---|
| 2026-04-26 21:43 | 48.68939 | 9.19655 | 1294 ft | 0 kts | 344° |
| 2026-04-26 22:00 | 48.68935 | 9.19657 | 1295 ft | 2 kts | 344° |
| 2026-04-26 22:00 | 48.68921 | 9.19663 | 1295 ft | 2 kts | 344° |
| 2026-04-26 22:00 | 48.68906 | 9.19669 | 1295 ft | 2 kts | 344° |
| 2026-04-26 22:00 | 48.68891 | 9.19676 | 1295 ft | 2 kts | 344° |
| 2026-04-26 22:01 | 48.68877 | 9.19679 | 1295 ft | 2 kts | 12° |
| 2026-04-26 22:01 | 48.68863 | 9.19671 | 1295 ft | 2 kts | 38° |
| 2026-04-26 22:01 | 48.68853 | 9.19654 | 1295 ft | 1 kts | 66° |
| 2026-04-26 22:01 | 48.68852 | 9.19644 | 1295 ft | 1 kts | 78° |
| 2026-04-26 22:02 | 48.68850 | 9.19639 | 1295 ft | 0 kts | 74° |
| 2026-04-26 22:03 | 48.68852 | 9.19649 | 1295 ft | 3 kts | 74° |
| 2026-04-26 22:04 | 48.68865 | 9.19714 | 1295 ft | 8 kts | 73° |
| 2026-04-26 22:04 | 48.68882 | 9.19809 | 1295 ft | 10 kts | 77° |
| 2026-04-26 22:04 | 48.68850 | 9.19898 | 1295 ft | 11 kts | 156° |
| 2026-04-26 22:04 | 48.68760 | 9.19961 | 1290 ft | 16 kts | 163° |
| 2026-04-26 22:05 | 48.68683 | 9.19994 | 1287 ft | 1 kts | 165° |
| 2026-04-26 22:05 | 48.68658 | 9.20004 | 1286 ft | 6 kts | 165° |
| 2026-04-26 22:05 | 48.68647 | 9.20008 | 1286 ft | 3 kts | 165° |
| 2026-04-26 22:05 | 48.68589 | 9.20040 | 1284 ft | 15 kts | 143° |
| 2026-04-26 22:06 | 48.68609 | 9.20203 | 1281 ft | 18 kts | 75° |
| 2026-04-26 22:06 | 48.68649 | 9.20425 | 1275 ft | 35 kts | 73° |
| 2026-04-26 22:06 | 48.68826 | 9.21345 | 1251 ft | 140 kts | 73° |
| 2026-04-26 22:06 | 48.69123 | 9.22926 | 2000 ft | 163 kts | 74° |
| 2026-04-26 22:07 | 48.69369 | 9.24493 | 3141 ft | 158 kts | 80° |
| 2026-04-26 22:07 | 48.69131 | 9.26092 | 3946 ft | 173 kts | 126° |
| 2026-04-26 22:07 | 48.68023 | 9.26936 | 4606 ft | 198 kts | 174° |
| 2026-04-26 22:07 | 48.66582 | 9.26687 | 5438 ft | 218 kts | 188° |
| 2026-04-26 22:08 | 48.65029 | 9.26378 | 6200 ft | 242 kts | 187° |
| 2026-04-26 22:08 | 48.63264 | 9.26067 | 6994 ft | 268 kts | 192° |
| 2026-04-26 22:08 | 48.61575 | 9.24893 | 7971 ft | 280 kts | 223° |
| 2026-04-26 22:08 | 48.60418 | 9.22529 | 9154 ft | 284 kts | 243° |
| 2026-04-26 22:09 | 48.59476 | 9.19938 | 10386 ft | 289 kts | 243° |
| 2026-04-26 22:09 | 48.58496 | 9.17304 | 11412 ft | 300 kts | 242° |
| 2026-04-26 22:09 | 48.57439 | 9.14499 | 12181 ft | 319 kts | 242° |
| 2026-04-26 22:09 | 48.56297 | 9.11491 | 12895 ft | 339 kts | 242° |
| 2026-04-26 22:10 | 48.55104 | 9.08366 | 13547 ft | 359 kts | 242° |
| 2026-04-26 22:10 | 48.53820 | 9.05019 | 14188 ft | 377 kts | 242° |
| 2026-04-26 22:10 | 48.52494 | 9.01575 | 15069 ft | 386 kts | 242° |
| 2026-04-26 22:10 | 48.51154 | 8.98099 | 16034 ft | 391 kts | 242° |
| 2026-04-26 22:11 | 48.49786 | 8.94553 | 16972 ft | 396 kts | 242° |
| 2026-04-26 22:11 | 48.48398 | 8.90957 | 17853 ft | 401 kts | 242° |
| 2026-04-26 22:11 | 48.47006 | 8.87355 | 18682 ft | 406 kts | 242° |
| 2026-04-26 22:11 | 48.45579 | 8.83664 | 19504 ft | 411 kts | 242° |
| 2026-04-26 22:12 | 48.44134 | 8.79930 | 20309 ft | 415 kts | 243° |
| 2026-04-26 22:12 | 48.42678 | 8.76177 | 20891 ft | 419 kts | 243° |
| 2026-04-26 22:12 | 48.41215 | 8.72413 | 21190 ft | 420 kts | 243° |
| 2026-04-26 22:12 | 48.39698 | 8.68667 | 21221 ft | 428 kts | 238° |
| 2026-04-26 22:13 | 48.37535 | 8.65436 | 21215 ft | 456 kts | 218° |
| 2026-04-26 22:13 | 48.34622 | 8.63348 | 21220 ft | 469 kts | 199° |
| 2026-04-26 22:13 | 48.31417 | 8.62342 | 21235 ft | 472 kts | 193° |
| 2026-04-26 22:13 | 48.28217 | 8.61447 | 21230 ft | 472 kts | 193° |
| 2026-04-26 22:14 | 48.24972 | 8.60522 | 21227 ft | 472 kts | 193° |
| 2026-04-26 22:14 | 48.21774 | 8.59583 | 21226 ft | 472 kts | 193° |
| 2026-04-26 22:14 | 48.18543 | 8.58616 | 21226 ft | 472 kts | 193° |
| 2026-04-26 22:14 | 48.15374 | 8.57665 | 21225 ft | 472 kts | 193° |
| 2026-04-26 22:15 | 48.12122 | 8.56694 | 21225 ft | 472 kts | 193° |
| 2026-04-26 22:15 | 48.08939 | 8.55746 | 21222 ft | 471 kts | 193° |
| 2026-04-26 22:15 | 48.05722 | 8.54788 | 21222 ft | 472 kts | 193° |
| 2026-04-26 22:15 | 48.02496 | 8.53829 | 21222 ft | 472 kts | 193° |
| 2026-04-26 22:16 | 47.99311 | 8.52884 | 21221 ft | 472 kts | 193° |
| 2026-04-26 22:16 | 47.96024 | 8.52255 | 21207 ft | 475 kts | 181° |
| 2026-04-26 22:16 | 47.92778 | 8.53107 | 21207 ft | 478 kts | 162° |
| 2026-04-26 22:16 | 47.89839 | 8.55378 | 21233 ft | 478 kts | 147° |
| 2026-04-26 22:17 | 47.87092 | 8.57822 | 21089 ft | 454 kts | 156° |
| 2026-04-26 22:17 | 47.84117 | 8.58992 | 20468 ft | 435 kts | 178° |
| 2026-04-26 22:17 | 47.81188 | 8.58493 | 19846 ft | 422 kts | 200° |
| 2026-04-26 22:17 | 47.78650 | 8.56439 | 19203 ft | 411 kts | 223° |
| 2026-04-26 22:18 | 47.76918 | 8.53250 | 18602 ft | 401 kts | 246° |
| 2026-04-26 22:18 | 47.76017 | 8.49402 | 17966 ft | 393 kts | 259° |
| 2026-04-26 22:18 | 47.75555 | 8.45448 | 17333 ft | 388 kts | 266° |
| 2026-04-26 22:18 | 47.75406 | 8.41472 | 16702 ft | 383 kts | 270° |
| 2026-04-26 22:19 | 47.75209 | 8.37536 | 16063 ft | 381 kts | 264° |
| 2026-04-26 22:19 | 47.74435 | 8.33831 | 15422 ft | 382 kts | 242° |
| 2026-04-26 22:19 | 47.72774 | 8.30845 | 14808 ft | 374 kts | 226° |
| 2026-04-26 22:19 | 47.70929 | 8.28310 | 14187 ft | 346 kts | 224° |
| 2026-04-26 22:20 | 47.69099 | 8.26208 | 13537 ft | 326 kts | 208° |
| 2026-04-26 22:20 | 47.66981 | 8.25480 | 12801 ft | 316 kts | 178° |
| 2026-04-26 22:20 | 47.64938 | 8.26364 | 12060 ft | 307 kts | 147° |
| 2026-04-26 22:20 | 47.63526 | 8.28581 | 11317 ft | 297 kts | 116° |
| 2026-04-26 22:21 | 47.62845 | 8.31393 | 10606 ft | 288 kts | 107° |
| 2026-04-26 22:21 | 47.62353 | 8.34202 | 9857 ft | 281 kts | 92° |
| 2026-04-26 22:21 | 47.62645 | 8.36985 | 9113 ft | 273 kts | 64° |
| 2026-04-26 22:21 | 47.63735 | 8.39160 | 8360 ft | 264 kts | 36° |
| 2026-04-26 22:22 | 47.65409 | 8.40119 | 7724 ft | 258 kts | 1° |
| 2026-04-26 22:22 | 47.67100 | 8.39525 | 7307 ft | 255 kts | 329° |
| 2026-04-26 22:22 | 47.68293 | 8.37641 | 6934 ft | 254 kts | 296° |
| 2026-04-26 22:22 | 47.68582 | 8.35116 | 6592 ft | 254 kts | 263° |
| 2026-04-26 22:23 | 47.67892 | 8.32754 | 6274 ft | 253 kts | 229° |
| 2026-04-26 22:23 | 47.66451 | 8.31341 | 6000 ft | 248 kts | 195° |
| 2026-04-26 22:23 | 47.64769 | 8.31309 | 5754 ft | 241 kts | 162° |
| 2026-04-26 22:23 | 47.63383 | 8.32515 | 5547 ft | 231 kts | 134° |
| 2026-04-26 22:24 | 47.62270 | 8.34201 | 5322 ft | 226 kts | 132° |
| 2026-04-26 22:24 | 47.61173 | 8.35854 | 5039 ft | 225 kts | 133° |
| 2026-04-26 22:24 | 47.60052 | 8.37480 | 4568 ft | 231 kts | 134° |
| 2026-04-26 22:24 | 47.58905 | 8.39071 | 4220 ft | 214 kts | 135° |
| 2026-04-26 22:25 | 47.57869 | 8.40473 | 3962 ft | 187 kts | 135° |
| 2026-04-26 22:25 | 47.56980 | 8.41671 | 3762 ft | 164 kts | 135° |
| 2026-04-26 22:25 | 47.56182 | 8.42750 | 3549 ft | 146 kts | 134° |
| 2026-04-26 22:25 | 47.55466 | 8.43721 | 3330 ft | 133 kts | 134° |
| 2026-04-26 22:26 | 47.54815 | 8.44607 | 3150 ft | 126 kts | 134° |
| 2026-04-26 22:26 | 47.54172 | 8.45484 | 2990 ft | 125 kts | 134° |
| 2026-04-26 22:26 | 47.53542 | 8.46342 | 2836 ft | 124 kts | 134° |
| 2026-04-26 22:26 | 47.52906 | 8.47208 | 2669 ft | 124 kts | 135° |
| 2026-04-26 22:27 | 47.52269 | 8.48076 | 2509 ft | 124 kts | 135° |
| 2026-04-26 22:27 | 47.51640 | 8.48931 | 2335 ft | 122 kts | 135° |
| 2026-04-26 22:27 | 47.51016 | 8.49788 | 2212 ft | 123 kts | 136° |
| 2026-04-26 22:27 | 47.50389 | 8.50646 | 2046 ft | 125 kts | 135° |
| 2026-04-26 22:28 | 47.49749 | 8.51516 | 1883 ft | 124 kts | 136° |
| 2026-04-26 22:28 | 47.49119 | 8.52374 | 1713 ft | 126 kts | 137° |
| 2026-04-26 22:28 | 47.48462 | 8.53259 | 1523 ft | 126 kts | 137° |
| 2026-04-26 22:28 | 47.47836 | 8.54109 | 1402 ft | 117 kts | 136° |
| 2026-04-26 22:29 | 47.47305 | 8.54833 | 1383 ft | 84 kts | 136° |
| 2026-04-26 22:29 | 47.46967 | 8.55296 | 1383 ft | 59 kts | 136° |
| 2026-04-26 22:29 | 47.46678 | 8.55634 | 1383 ft | 37 kts | 156° |
| 2026-04-26 22:29 | 47.46440 | 8.55726 | 1382 ft | 27 kts | 166° |
| 2026-04-26 22:30 | 47.46285 | 8.55880 | 1382 ft | 30 kts | 135° |
| 2026-04-26 22:30 | 47.46128 | 8.55992 | 1382 ft | 24 kts | 185° |
| 2026-04-26 22:30 | 47.45947 | 8.55950 | 1382 ft | 27 kts | 193° |
| 2026-04-26 22:30 | 47.45782 | 8.55874 | 1382 ft | 22 kts | 186° |
| 2026-04-26 22:31 | 47.45633 | 8.55850 | 1382 ft | 17 kts | 185° |
| 2026-04-26 22:31 | 47.45507 | 8.55864 | 1382 ft | 13 kts | 146° |
| 2026-04-26 22:31 | 47.45425 | 8.55872 | 1382 ft | 2 kts | 184° |
| 2026-04-26 22:31 | 47.45414 | 8.55870 | 1382 ft | 3 kts | 185° |